Time;durP1;ratioP1;P1;durP2;ratioP2;P2;SDS_P1;SDS_P2;PMS_P1;PMS_P2;Temp;Humidity;BMP_temperature;BMP_pressure;BME280_temperature;BME280_humidity;BME280_pressure;Samples;Min_cycle;Max_cycle;Signal;HPM_P1;HPM_P2
2022/08/31 00:05:07;;;;;;;;;;;19.90;92.20;;;;;;4952687;28;19922;-82
2022/08/31 00:07:36;;;;;;;;;;;19.80;92.20;;;;;;4939869;29;19956;-82
2022/08/31 00:10:12;;;;;;;;;;;19.80;92.20;;;;;;4937228;29;21833;-82
2022/08/31 00:12:40;;;;;;;;;;;19.80;92.30;;;;;;4946039;28;20130;-82
2022/08/31 00:15:07;;;;;;;;;;;19.80;92.30;;;;;;4949552;28;19930;-82
2022/08/31 00:17:34;;;;;;;;;;;19.80;92.40;;;;;;4937355;29;20036;-82
2022/08/31 00:20:00;;;;;;;;;;;19.80;92.40;;;;;;4955961;28;19927;-81
2022/08/31 00:22:27;;;;;;;;;;;19.80;92.40;;;;;;4947235;28;20390;-82
2022/08/31 00:24:56;;;;;;;;;;;19.70;92.50;;;;;;4937918;28;19927;-82
2022/08/31 00:27:22;;;;;;;;;;;19.70;92.50;;;;;;4940638;29;19927;-82
2022/08/31 00:29:49;;;;;;;;;;;19.70;92.60;;;;;;4944990;29;20024;-83
2022/08/31 00:32:16;;;;;;;;;;;19.70;92.60;;;;;;4940051;29;20384;-83
2022/08/31 00:34:43;;;;;;;;;;;19.70;92.60;;;;;;4951564;28;19930;-82
2022/08/31 00:37:10;;;;;;;;;;;19.70;92.70;;;;;;4938967;29;20438;-82
2022/08/31 00:39:37;;;;;;;;;;;19.70;92.70;;;;;;4938773;29;19934;-82
2022/08/31 00:42:06;;;;;;;;;;;19.60;92.70;;;;;;4944346;29;19937;-82
2022/08/31 00:44:33;;;;;;;;;;;19.70;92.70;;;;;;4954416;28;19937;-82
2022/08/31 00:47:00;;;;;;;;;;;19.60;92.70;;;;;;4951911;28;19930;-83
2022/08/31 00:49:28;;;;;;;;;;;19.60;92.80;;;;;;4950156;28;19930;-83
2022/08/31 00:51:56;;;;;;;;;;;19.60;92.80;;;;;;4948545;28;19927;-82
2022/08/31 00:54:26;;;;;;;;;;;19.60;92.80;;;;;;4937237;29;19989;-83
2022/08/31 00:56:53;;;;;;;;;;;19.60;92.90;;;;;;4938198;29;20428;-82
2022/08/31 00:59:22;;;;;;;;;;;19.60;92.90;;;;;;4931515;29;19950;-82
2022/08/31 01:01:49;;;;;;;;;;;19.60;92.90;;;;;;4940421;29;19926;-82
2022/08/31 01:04:16;;;;;;;;;;;19.50;92.90;;;;;;4951362;28;20311;-82
2022/08/31 01:06:43;;;;;;;;;;;19.50;92.90;;;;;;4935652;29;19930;-82
2022/08/31 01:09:11;;;;;;;;;;;19.50;92.90;;;;;;4938372;29;20448;-82
2022/08/31 01:11:38;;;;;;;;;;;19.50;92.90;;;;;;4938958;29;19934;-82
2022/08/31 01:14:07;;;;;;;;;;;19.50;93.00;;;;;;4947042;28;19931;-82
2022/08/31 01:16:37;;;;;;;;;;;19.50;93.00;;;;;;4945172;28;19981;-82
2022/08/31 01:19:05;;;;;;;;;;;19.50;93.00;;;;;;4939664;29;19977;-82
2022/08/31 01:21:37;;;;;;;;;;;19.50;93.10;;;;;;4944233;28;20017;-82
2022/08/31 01:24:06;;;;;;;;;;;19.50;93.10;;;;;;4929852;29;19958;-82
2022/08/31 01:26:33;;;;;;;;;;;19.50;93.10;;;;;;4945274;28;19926;-81
2022/08/31 01:29:03;;;;;;;;;;;19.40;93.10;;;;;;4943209;29;19950;-82
2022/08/31 01:31:31;;;;;;;;;;;19.40;93.10;;;;;;4937408;28;19927;-82
2022/08/31 01:33:58;;;;;;;;;;;19.40;93.10;;;;;;4938139;29;19990;-82
2022/08/31 01:36:25;;;;;;;;;;;19.40;93.10;;;;;;4940600;28;20427;-83
2022/08/31 01:38:52;;;;;;;;;;;19.40;93.20;;;;;;4955143;28;19989;-82
2022/08/31 01:41:21;;;;;;;;;;;19.40;93.20;;;;;;4949461;28;19999;-82
2022/08/31 01:43:48;;;;;;;;;;;19.40;93.20;;;;;;4950205;28;19930;-82
2022/08/31 01:46:15;;;;;;;;;;;19.30;93.20;;;;;;4957130;28;19958;-82
2022/08/31 01:48:43;;;;;;;;;;;19.30;93.20;;;;;;4954980;28;19930;-82
2022/08/31 01:51:11;;;;;;;;;;;19.30;93.20;;;;;;4939521;29;20399;-82
2022/08/31 01:53:39;;;;;;;;;;;19.30;93.30;;;;;;4943240;29;20016;-82
2022/08/31 01:56:10;;;;;;;;;;;19.30;93.30;;;;;;4921430;29;19934;-82
2022/08/31 01:58:39;;;;;;;;;;;19.30;93.30;;;;;;4923216;28;19937;-82
2022/08/31 02:01:33;;;;;;;;;;;19.30;93.30;;;;;;4946137;29;19927;-82
2022/08/31 02:04:00;;;;;;;;;;;19.30;93.30;;;;;;4938791;29;20398;-82
2022/08/31 02:06:27;;;;;;;;;;;19.30;93.40;;;;;;4933234;29;19935;-82
2022/08/31 02:08:53;;;;;;;;;;;19.20;93.40;;;;;;4934363;29;20390;-82
2022/08/31 02:11:20;;;;;;;;;;;19.20;93.40;;;;;;4950318;28;19933;-82
2022/08/31 02:13:51;;;;;;;;;;;19.20;93.40;;;;;;4933102;29;19970;-83
2022/08/31 02:16:18;;;;;;;;;;;19.20;93.40;;;;;;4946761;28;19930;-83
2022/08/31 02:18:45;;;;;;;;;;;19.20;93.40;;;;;;4932594;29;19927;-82
2022/08/31 02:21:12;;;;;;;;;;;19.20;93.50;;;;;;4937744;29;19949;-82
2022/08/31 02:23:39;;;;;;;;;;;19.20;93.50;;;;;;4933256;29;20120;-82
2022/08/31 02:26:06;;;;;;;;;;;19.20;93.50;;;;;;4936603;29;19927;-82
2022/08/31 02:28:34;;;;;;;;;;;19.20;93.50;;;;;;4940341;28;19939;-82
2022/08/31 02:31:02;;;;;;;;;;;19.10;93.50;;;;;;4939030;29;19970;-82
2022/08/31 02:33:32;;;;;;;;;;;19.10;93.50;;;;;;4935524;29;19930;-82
2022/08/31 02:35:59;;;;;;;;;;;19.10;93.50;;;;;;4937022;29;20055;-83
2022/08/31 02:38:27;;;;;;;;;;;19.10;93.60;;;;;;4941705;28;20021;-82
2022/08/31 02:40:54;;;;;;;;;;;19.10;93.60;;;;;;4935367;29;19926;-82
2022/08/31 02:43:21;;;;;;;;;;;19.10;93.60;;;;;;4948188;28;19930;-82
2022/08/31 02:45:48;;;;;;;;;;;19.10;93.60;;;;;;4953140;28;19930;-82
2022/08/31 02:48:22;;;;;;;;;;;19.10;93.60;;;;;;4947994;28;19962;-82
2022/08/31 02:50:51;;;;;;;;;;;19.10;93.60;;;;;;4935233;29;19927;-82
2022/08/31 02:53:18;;;;;;;;;;;19.10;93.60;;;;;;4946380;29;19974;-82
2022/08/31 02:55:46;;;;;;;;;;;19.10;93.70;;;;;;4940681;29;19933;-82
2022/08/31 02:58:13;;;;;;;;;;;19.00;93.70;;;;;;4927554;29;20409;-82
2022/08/31 03:00:43;;;;;;;;;;;19.00;93.70;;;;;;4935464;29;19945;-83
2022/08/31 03:03:11;;;;;;;;;;;19.00;93.90;;;;;;4935487;29;19937;-82
2022/08/31 03:05:39;;;;;;;;;;;19.00;93.90;;;;;;4935404;29;20368;-82
2022/08/31 03:08:10;;;;;;;;;;;19.00;93.90;;;;;;4933584;29;19952;-82
2022/08/31 03:10:37;;;;;;;;;;;19.00;94.10;;;;;;4938388;29;19930;-82
2022/08/31 03:13:04;;;;;;;;;;;19.00;94.10;;;;;;4940464;29;19926;-82
2022/08/31 03:15:31;;;;;;;;;;;19.00;94.20;;;;;;4924172;29;19927;-82
2022/08/31 03:18:00;;;;;;;;;;;18.90;94.20;;;;;;4941804;28;22134;-83
2022/08/31 03:20:28;;;;;;;;;;;19.00;94.30;;;;;;4942936;29;19934;-83
2022/08/31 03:22:56;;;;;;;;;;;18.90;94.30;;;;;;4930501;29;19958;-82
2022/08/31 03:25:26;;;;;;;;;;;18.90;94.20;;;;;;4931190;29;19926;-82
2022/08/31 03:27:53;;;;;;;;;;;18.90;94.50;;;;;;4938771;29;20002;-82
2022/08/31 03:30:21;;;;;;;;;;;18.90;94.20;;;;;;4927860;29;19935;-82
2022/08/31 03:32:59;;;;;;;;;;;18.90;94.10;;;;;;4936503;29;19942;-82
2022/08/31 03:35:26;;;;;;;;;;;18.90;94.20;;;;;;4939054;29;20435;-82
2022/08/31 03:37:53;;;;;;;;;;;18.90;94.20;;;;;;4937707;29;20337;-82
2022/08/31 03:40:22;;;;;;;;;;;18.90;94.20;;;;;;4933980;28;19927;-83
2022/08/31 03:42:48;;;;;;;;;;;18.80;94.10;;;;;;4928676;28;20405;-81
2022/08/31 03:45:15;;;;;;;;;;;18.90;94.20;;;;;;4937660;29;20801;-82
2022/08/31 03:47:42;;;;;;;;;;;18.80;94.20;;;;;;4941596;29;19926;-82
2022/08/31 03:50:14;;;;;;;;;;;18.80;94.20;;;;;;4936597;29;19933;-83
2022/08/31 03:52:53;;;;;;;;;;;18.80;94.20;;;;;;4942717;29;20543;-83
2022/08/31 03:55:21;;;;;;;;;;;18.80;94.20;;;;;;4940489;29;19940;-83
2022/08/31 03:57:50;;;;;;;;;;;18.80;94.20;;;;;;4931528;29;19927;-82
2022/08/31 04:00:18;;;;;;;;;;;18.80;94.20;;;;;;4929348;29;19926;-83
2022/08/31 04:02:50;;;;;;;;;;;18.80;94.30;;;;;;4942568;29;19926;-82
2022/08/31 04:05:44;;;;;;;;;;;18.80;94.30;;;;;;4937849;29;19931;-81
2022/08/31 04:08:14;;;;;;;;;;;18.80;94.40;;;;;;4945030;28;19934;-83
2022/08/31 04:10:46;;;;;;;;;;;18.80;94.40;;;;;;4944569;28;20085;-83
2022/08/31 04:13:13;;;;;;;;;;;18.80;94.60;;;;;;4950254;28;19926;-82
2022/08/31 04:16:17;;;;;;;;;;;18.70;94.60;;;;;;4945034;28;19926;-82
2022/08/31 04:19:07;;;;;;;;;;;18.80;94.60;;;;;;4927288;28;19930;-83
2022/08/31 04:21:39;;;;;;;;;;;18.80;94.70;;;;;;4936435;29;19934;-82
2022/08/31 04:24:06;;;;;;;;;;;18.70;94.70;;;;;;4936639;29;19926;-83
2022/08/31 04:26:36;;;;;;;;;;;18.80;94.80;;;;;;4937610;28;19926;-82
2022/08/31 04:29:04;;;;;;;;;;;18.70;94.90;;;;;;4935200;29;19977;-82
2022/08/31 04:31:31;;;;;;;;;;;18.70;95.00;;;;;;4938035;29;19927;-82
2022/08/31 04:33:59;;;;;;;;;;;18.70;95.00;;;;;;4942721;29;19933;-83
2022/08/31 04:36:28;;;;;;;;;;;18.70;95.00;;;;;;4925366;29;19957;-82
2022/08/31 04:38:57;;;;;;;;;;;18.70;95.10;;;;;;4938790;29;20247;-82
2022/08/31 04:41:25;;;;;;;;;;;18.70;95.10;;;;;;4934905;29;20456;-82
2022/08/31 04:43:55;;;;;;;;;;;18.70;95.10;;;;;;4928233;29;19930;-82
2022/08/31 04:46:23;;;;;;;;;;;18.70;95.00;;;;;;4951098;28;20017;-82
2022/08/31 04:48:50;;;;;;;;;;;18.70;95.10;;;;;;4935848;29;19932;-82
2022/08/31 04:51:18;;;;;;;;;;;18.60;95.00;;;;;;4934984;29;19990;-82
2022/08/31 04:53:46;;;;;;;;;;;18.60;95.00;;;;;;4944764;28;19966;-82
2022/08/31 04:56:14;;;;;;;;;;;18.70;95.00;;;;;;4950621;28;19933;-82
2022/08/31 04:58:42;;;;;;;;;;;18.70;95.10;;;;;;4935135;29;20025;-82
2022/08/31 05:01:13;;;;;;;;;;;18.60;95.10;;;;;;4935421;29;20010;-82
2022/08/31 05:03:59;;;;;;;;;;;18.60;95.10;;;;;;4952684;28;19936;-82
2022/08/31 05:06:28;;;;;;;;;;;18.60;95.10;;;;;;4940393;29;19939;-82
2022/08/31 05:08:56;;;;;;;;;;;18.60;95.10;;;;;;4937172;29;20348;-82
2022/08/31 05:11:24;;;;;;;;;;;18.60;95.20;;;;;;4940309;28;19926;-82
2022/08/31 05:13:51;;;;;;;;;;;18.60;95.20;;;;;;4948183;28;19934;-82
2022/08/31 05:16:20;;;;;;;;;;;18.60;95.20;;;;;;4935000;29;19926;-81
2022/08/31 05:18:48;;;;;;;;;;;18.60;95.40;;;;;;4941937;28;19938;-80
2022/08/31 05:21:18;;;;;;;;;;;18.60;95.50;;;;;;4949286;28;19957;-80
2022/08/31 05:23:46;;;;;;;;;;;18.60;95.50;;;;;;4939795;29;19933;-80
2022/08/31 05:26:16;;;;;;;;;;;18.60;95.50;;;;;;4938108;29;19927;-80
2022/08/31 05:28:43;;;;;;;;;;;18.60;95.50;;;;;;4949304;28;20290;-81
2022/08/31 05:31:10;;;;;;;;;;;18.60;95.60;;;;;;4940773;29;19952;-81
2022/08/31 05:33:42;;;;;;;;;;;18.50;95.70;;;;;;4938795;29;19934;-80
2022/08/31 05:36:10;;;;;;;;;;;18.60;95.80;;;;;;4941609;29;19969;-80
2022/08/31 05:38:38;;;;;;;;;;;18.50;95.80;;;;;;4940731;29;19942;-80
2022/08/31 05:41:06;;;;;;;;;;;18.50;95.90;;;;;;4941334;29;19933;-80
2022/08/31 05:43:33;;;;;;;;;;;18.50;95.90;;;;;;4953976;28;20297;-80
2022/08/31 05:46:00;;;;;;;;;;;18.50;96.10;;;;;;4942995;29;19927;-80
2022/08/31 05:48:32;;;;;;;;;;;18.50;96.10;;;;;;4940533;29;19937;-80
2022/08/31 05:51:02;;;;;;;;;;;18.50;96.30;;;;;;4925961;29;19982;-81
2022/08/31 05:53:29;;;;;;;;;;;18.50;96.30;;;;;;4942056;29;19927;-81
2022/08/31 05:56:00;;;;;;;;;;;18.40;96.20;;;;;;4953464;29;19927;-80
2022/08/31 05:58:27;;;;;;;;;;;18.50;96.20;;;;;;4929200;28;19969;-81
2022/08/31 06:00:54;;;;;;;;;;;18.50;96.30;;;;;;4931876;29;19926;-80
2022/08/31 06:03:39;;;;;;;;;;;18.50;96.20;;;;;;4950718;29;20328;-81
2022/08/31 06:06:09;;;;;;;;;;;18.50;96.20;;;;;;4942160;29;19933;-81
2022/08/31 06:08:36;;;;;;;;;;;18.50;96.10;;;;;;4949335;29;19954;-81
2022/08/31 06:11:03;;;;;;;;;;;18.40;96.10;;;;;;4941508;29;20495;-81
2022/08/31 06:13:29;;;;;;;;;;;18.40;96.20;;;;;;4934946;29;19926;-81
2022/08/31 06:15:57;;;;;;;;;;;18.40;96.10;;;;;;4940851;29;19931;-81
2022/08/31 06:18:24;;;;;;;;;;;18.40;96.20;;;;;;4933786;28;19931;-81
2022/08/31 06:21:00;;;;;;;;;;;18.40;96.20;;;;;;4940203;29;19927;-81
2022/08/31 06:23:29;;;;;;;;;;;18.40;96.20;;;;;;4933347;29;19942;-80
2022/08/31 06:26:04;;;;;;;;;;;18.40;96.20;;;;;;4936219;29;19926;-80
2022/08/31 06:28:32;;;;;;;;;;;18.40;96.30;;;;;;4942436;28;20342;-81
2022/08/31 06:31:00;;;;;;;;;;;18.40;96.20;;;;;;4937839;29;20045;-81
2022/08/31 06:33:28;;;;;;;;;;;18.30;96.10;;;;;;4938750;29;20687;-81
2022/08/31 06:36:11;;;;;;;;;;;18.30;96.20;;;;;;4927924;28;20298;-81
2022/08/31 06:38:54;;;;;;;;;;;18.30;96.10;;;;;;4939481;29;19933;-81
2022/08/31 06:41:33;;;;;;;;;;;18.30;96.10;;;;;;4939296;29;19927;-81
2022/08/31 06:44:29;;;;;;;;;;;18.30;96.20;;;;;;4902840;29;19932;-81
2022/08/31 06:47:14;;;;;;;;;;;18.30;96.30;;;;;;4933380;29;19955;-81
2022/08/31 06:49:41;;;;;;;;;;;18.30;96.30;;;;;;4942221;29;19931;-81
2022/08/31 06:52:08;;;;;;;;;;;18.30;96.40;;;;;;4927158;28;20356;-80
2022/08/31 06:54:39;;;;;;;;;;;18.30;96.40;;;;;;4948750;28;19981;-81
2022/08/31 06:57:24;;;;;;;;;;;18.30;96.50;;;;;;4950610;28;19932;-81
2022/08/31 07:00:12;;;;;;;;;;;18.30;96.60;;;;;;4947276;28;19941;-80
2022/08/31 07:03:21;;;;;;;;;;;18.30;96.60;;;;;;4937180;29;19942;-81
2022/08/31 07:05:49;;;;;;;;;;;18.30;96.60;;;;;;4931441;29;19927;-81
2022/08/31 07:08:16;;;;;;;;;;;18.30;96.60;;;;;;4943750;28;20021;-81
2022/08/31 07:10:45;;;;;;;;;;;18.30;96.80;;;;;;4935402;28;20417;-80
2022/08/31 07:13:11;;;;;;;;;;;18.30;96.70;;;;;;4938402;28;19937;-81
2022/08/31 07:15:39;;;;;;;;;;;18.30;96.70;;;;;;4933939;29;19933;-80
2022/08/31 07:18:06;;;;;;;;;;;18.30;96.90;;;;;;4932231;29;20486;-81
2022/08/31 07:20:33;;;;;;;;;;;18.30;97.00;;;;;;4933432;29;19927;-81
2022/08/31 07:23:01;;;;;;;;;;;18.20;96.90;;;;;;4937040;29;19981;-80
2022/08/31 07:25:39;;;;;;;;;;;18.30;96.90;;;;;;4928677;29;19985;-80
2022/08/31 07:28:09;;;;;;;;;;;18.20;97.00;;;;;;4948607;29;20346;-80
2022/08/31 07:30:38;;;;;;;;;;;18.30;97.10;;;;;;4934053;29;19927;-81
2022/08/31 07:33:05;;;;;;;;;;;18.30;97.10;;;;;;4936054;29;19990;-81
2022/08/31 07:35:34;;;;;;;;;;;18.20;97.10;;;;;;4951514;28;20036;-80
2022/08/31 07:43:52;;;;;;;;;;;18.20;97.30;;;;;;4924722;29;19981;-80
2022/08/31 07:46:19;;;;;;;;;;;18.20;97.20;;;;;;4943167;29;19931;-81
2022/08/31 07:48:46;;;;;;;;;;;18.20;97.20;;;;;;4933420;29;19933;-80
2022/08/31 07:51:33;;;;;;;;;;;18.20;97.20;;;;;;4949722;28;19927;-81
2022/08/31 07:54:12;;;;;;;;;;;18.20;97.30;;;;;;4936260;29;20452;-81
2022/08/31 07:56:49;;;;;;;;;;;18.20;97.30;;;;;;4926940;28;20431;-80
2022/08/31 07:59:21;;;;;;;;;;;18.20;97.30;;;;;;4937147;29;19934;-81
2022/08/31 08:01:49;;;;;;;;;;;18.20;97.50;;;;;;4938639;29;19931;-81
2022/08/31 08:04:24;;;;;;;;;;;18.20;97.50;;;;;;4935817;29;19926;-81
2022/08/31 08:07:26;;;;;;;;;;;18.20;97.50;;;;;;4908326;29;20022;-80
2022/08/31 08:10:14;;;;;;;;;;;18.20;97.50;;;;;;4944114;29;19934;-81
2022/08/31 08:12:41;;;;;;;;;;;18.20;97.60;;;;;;4949707;28;19978;-81
2022/08/31 08:15:15;;;;;;;;;;;18.20;97.60;;;;;;4929960;29;19977;-81
2022/08/31 08:18:12;;;;;;;;;;;18.20;97.60;;;;;;4935185;28;20604;-80
2022/08/31 08:20:45;;;;;;;;;;;18.20;97.50;;;;;;4929976;29;20312;-80
2022/08/31 08:23:13;;;;;;;;;;;18.20;97.50;;;;;;4942257;28;19969;-81
2022/08/31 08:26:07;;;;;;;;;;;18.20;97.50;;;;;;4956693;28;19974;-80
2022/08/31 08:28:53;;;;;;;;;;;18.20;97.50;;;;;;4955513;28;20350;-81
2022/08/31 08:31:23;;;;;;;;;;;18.20;97.70;;;;;;4943127;29;19927;-81
2022/08/31 08:33:54;;;;;;;;;;;18.20;97.70;;;;;;4951604;29;20113;-80
2022/08/31 08:36:21;;;;;;;;;;;18.20;97.70;;;;;;4937831;29;19934;-81
2022/08/31 08:38:50;;;;;;;;;;;18.20;97.80;;;;;;4935275;29;19926;-82
2022/08/31 08:41:19;;;;;;;;;;;18.20;97.80;;;;;;4936437;29;19926;-81
2022/08/31 08:43:47;;;;;;;;;;;18.20;97.70;;;;;;4956928;28;19965;-81
2022/08/31 08:46:15;;;;;;;;;;;18.20;97.70;;;;;;4933433;29;19934;-81
2022/08/31 08:48:45;;;;;;;;;;;18.20;97.90;;;;;;4939517;29;19930;-81
2022/08/31 08:51:14;;;;;;;;;;;18.20;98.00;;;;;;4936393;29;19961;-81
2022/08/31 08:53:55;;;;;;;;;;;18.20;98.00;;;;;;4944656;29;20405;-80
2022/08/31 08:56:27;;;;;;;;;;;18.20;98.10;;;;;;4939074;29;19958;-81
2022/08/31 08:58:54;;;;;;;;;;;18.20;98.20;;;;;;4943867;28;20042;-81
2022/08/31 09:01:27;;;;;;;;;;;18.20;98.20;;;;;;4944665;28;19931;-81
2022/08/31 09:04:01;;;;;;;;;;;18.20;98.30;;;;;;4949189;28;19935;-81
2022/08/31 09:06:53;;;;;;;;;;;18.20;98.20;;;;;;4923733;28;19933;-80
2022/08/31 09:09:28;;;;;;;;;;;18.20;98.20;;;;;;4946181;29;19978;-81
2022/08/31 09:12:05;;;;;;;;;;;18.20;98.20;;;;;;4935516;29;19998;-81
2022/08/31 09:14:40;;;;;;;;;;;18.20;98.10;;;;;;4931457;29;19933;-81
2022/08/31 09:17:15;;;;;;;;;;;18.20;98.10;;;;;;4945253;29;19926;-81
2022/08/31 09:20:00;;;;;;;;;;;18.20;98.20;;;;;;4935523;29;19926;-81
2022/08/31 09:22:30;;;;;;;;;;;18.20;98.20;;;;;;4938455;29;19962;-81
2022/08/31 09:24:59;;;;;;;;;;;18.20;98.20;;;;;;4933072;29;20013;-81
2022/08/31 09:27:46;;;;;;;;;;;18.20;98.20;;;;;;4948638;28;19937;-81
2022/08/31 09:30:17;;;;;;;;;;;18.20;98.30;;;;;;4952468;28;20404;-81
2022/08/31 09:32:55;;;;;;;;;;;18.20;98.40;;;;;;4943958;29;20037;-80
2022/08/31 09:35:27;;;;;;;;;;;18.20;98.30;;;;;;4952210;28;20393;-80
2022/08/31 09:37:58;;;;;;;;;;;18.20;98.40;;;;;;4939925;29;19926;-80
2022/08/31 09:40:36;;;;;;;;;;;18.20;98.40;;;;;;4932721;28;19931;-81
2022/08/31 09:43:04;;;;;;;;;;;18.20;98.40;;;;;;4940376;28;19934;-82
2022/08/31 09:45:34;;;;;;;;;;;18.20;98.30;;;;;;4948893;28;20065;-81
2022/08/31 09:48:02;;;;;;;;;;;18.20;98.30;;;;;;4949674;28;20029;-81
2022/08/31 09:50:32;;;;;;;;;;;18.20;98.30;;;;;;4953491;28;19935;-81
2022/08/31 09:56:02;;;;;;;;;;;18.10;98.50;;;;;;4953005;29;19931;-80
2022/08/31 09:58:30;;;;;;;;;;;18.20;98.50;;;;;;4950916;29;19930;-81
2022/08/31 10:01:03;;;;;;;;;;;18.20;98.50;;;;;;4946772;28;19954;-81
2022/08/31 10:03:30;;;;;;;;;;;18.10;98.40;;;;;;4937634;29;20017;-80
2022/08/31 10:06:00;;;;;;;;;;;18.20;98.40;;;;;;4956616;28;19966;-81
2022/08/31 10:08:40;;;;;;;;;;;18.20;98.50;;;;;;4946201;29;20342;-80
2022/08/31 10:11:10;;;;;;;;;;;18.20;98.40;;;;;;4943252;28;20011;-80
2022/08/31 10:13:38;;;;;;;;;;;18.20;98.40;;;;;;4955388;28;19958;-81
2022/08/31 10:16:13;;;;;;;;;;;18.20;98.30;;;;;;4949683;28;19980;-81
2022/08/31 10:18:49;;;;;;;;;;;18.20;98.30;;;;;;4953891;28;20005;-80
2022/08/31 10:21:20;;;;;;;;;;;18.10;98.20;;;;;;4949252;29;19927;-80
2022/08/31 10:23:55;;;;;;;;;;;18.10;98.30;;;;;;4951757;28;19969;-80
2022/08/31 10:26:32;;;;;;;;;;;18.10;98.30;;;;;;4949319;29;20409;-79
2022/08/31 10:29:05;;;;;;;;;;;18.10;98.30;;;;;;4936849;29;19931;-80
2022/08/31 10:31:35;;;;;;;;;;;18.10;98.30;;;;;;4951837;28;19930;-80
2022/08/31 10:36:57;;;;;;;;;;;18.10;98.20;;;;;;4944046;28;19954;-80
2022/08/31 10:39:27;;;;;;;;;;;18.10;98.20;;;;;;4954821;28;19950;-80
2022/08/31 10:41:54;;;;;;;;;;;18.10;98.20;;;;;;4953855;28;20325;-80
2022/08/31 10:44:25;;;;;;;;;;;18.10;98.20;;;;;;4956675;28;19949;-80
2022/08/31 10:46:53;;;;;;;;;;;18.10;98.20;;;;;;4949229;29;19926;-80
2022/08/31 10:49:20;;;;;;;;;;;18.10;98.10;;;;;;4953197;28;19930;-80
2022/08/31 10:51:50;;;;;;;;;;;18.10;98.10;;;;;;4937280;29;20464;-80
2022/08/31 10:54:27;;;;;;;;;;;18.10;98.20;;;;;;4945633;28;19950;-80
2022/08/31 10:57:01;;;;;;;;;;;18.10;98.30;;;;;;4944162;29;20390;-80
2022/08/31 10:59:31;;;;;;;;;;;18.10;98.40;;;;;;4952534;28;19933;-81
2022/08/31 11:02:01;;;;;;;;;;;18.10;98.40;;;;;;4946711;28;19927;-80
2022/08/31 11:04:47;;;;;;;;;;;18.10;98.40;;;;;;4955079;28;20051;-81
2022/08/31 11:07:23;;;;;;;;;;;18.10;98.60;;;;;;4950857;28;19982;-81
2022/08/31 11:09:55;;;;;;;;;;;18.10;98.50;;;;;;4950447;29;19934;-81
2022/08/31 11:12:25;;;;;;;;;;;18.10;98.70;;;;;;4944498;28;19926;-81
2022/08/31 11:15:08;;;;;;;;;;;18.10;98.70;;;;;;4954007;28;20345;-81
2022/08/31 11:17:44;;;;;;;;;;;18.10;99.00;;;;;;4933324;29;19973;-81
2022/08/31 11:20:18;;;;;;;;;;;18.10;98.70;;;;;;4949810;28;19930;-81
2022/08/31 11:23:04;;;;;;;;;;;18.10;98.90;;;;;;4933158;29;19931;-80
2022/08/31 11:25:49;;;;;;;;;;;18.10;98.90;;;;;;4951047;28;21042;-81
2022/08/31 11:28:30;;;;;;;;;;;18.20;98.90;;;;;;4943436;28;19978;-81
2022/08/31 11:31:00;;;;;;;;;;;18.20;99.10;;;;;;4947048;28;20064;-81
2022/08/31 11:33:28;;;;;;;;;;;18.20;99.20;;;;;;4950171;28;20025;-81
2022/08/31 11:36:01;;;;;;;;;;;18.20;99.30;;;;;;4953512;28;20417;-81
2022/08/31 11:38:46;;;;;;;;;;;18.20;99.50;;;;;;4949349;29;19927;-81
2022/08/31 11:41:28;;;;;;;;;;;18.20;99.60;;;;;;4944864;28;19930;-81
2022/08/31 11:43:58;;;;;;;;;;;18.20;99.70;;;;;;4950708;28;19927;-81
2022/08/31 11:46:46;;;;;;;;;;;18.20;99.90;;;;;;4956645;28;19927;-81
2022/08/31 11:49:35;;;;;;;;;;;18.20;99.90;;;;;;4931854;29;20395;-81
2022/08/31 11:52:04;;;;;;;;;;;18.30;99.90;;;;;;4945655;28;20389;-82
2022/08/31 11:54:56;;;;;;;;;;;18.30;99.90;;;;;;4938115;29;20344;-81
2022/08/31 11:57:25;;;;;;;;;;;18.30;99.90;;;;;;4928391;29;19941;-81
2022/08/31 11:59:54;;;;;;;;;;;18.30;99.90;;;;;;4944810;28;21366;-81
2022/08/31 12:02:42;;;;;;;;;;;18.30;99.90;;;;;;4937293;28;20264;-81
2022/08/31 12:05:09;;;;;;;;;;;18.30;99.90;;;;;;4951808;28;20021;-82
2022/08/31 12:07:41;;;;;;;;;;;18.40;99.90;;;;;;4948412;28;19926;-82
2022/08/31 12:10:28;;;;;;;;;;;18.40;99.90;;;;;;4949795;29;19969;-82
2022/08/31 12:13:06;;;;;;;;;;;18.40;99.90;;;;;;4948839;28;19926;-81
2022/08/31 12:15:39;;;;;;;;;;;18.40;99.90;;;;;;4942375;29;19927;-82
2022/08/31 12:18:16;;;;;;;;;;;18.40;99.90;;;;;;4951361;28;19934;-81
2022/08/31 12:23:36;;;;;;;;;;;18.40;99.90;;;;;;4936079;29;19927;-81
2022/08/31 12:26:22;;;;;;;;;;;18.40;99.90;;;;;;4927504;29;19935;-81
2022/08/31 12:28:57;;;;;;;;;;;18.50;99.90;;;;;;4950864;28;19926;-82
2022/08/31 12:31:26;;;;;;;;;;;18.50;99.90;;;;;;4949284;28;19933;-82
2022/08/31 12:33:55;;;;;;;;;;;18.50;99.90;;;;;;4948609;28;20344;-82
2022/08/31 12:36:26;;;;;;;;;;;18.60;99.90;;;;;;4945639;29;19927;-82
2022/08/31 12:39:05;;;;;;;;;;;18.60;99.90;;;;;;4945479;28;20332;-80
2022/08/31 12:41:32;;;;;;;;;;;18.60;99.90;;;;;;4933152;29;19933;-82
2022/08/31 12:43:59;;;;;;;;;;;18.60;99.90;;;;;;4947740;28;19982;-82
2022/08/31 12:46:35;;;;;;;;;;;18.60;99.90;;;;;;4947072;29;19942;-81
2022/08/31 12:49:14;;;;;;;;;;;18.70;99.90;;;;;;4952205;29;20412;-82
2022/08/31 12:51:44;;;;;;;;;;;18.70;99.90;;;;;;4927141;29;19934;-82
2022/08/31 12:54:16;;;;;;;;;;;18.70;99.90;;;;;;4936804;29;20017;-81
2022/08/31 12:56:46;;;;;;;;;;;18.70;99.90;;;;;;4951012;29;19997;-81
2022/08/31 12:59:19;;;;;;;;;;;18.80;99.90;;;;;;4942910;28;19961;-81
2022/08/31 13:01:48;;;;;;;;;;;18.80;99.90;;;;;;4944968;29;19951;-81
2022/08/31 13:04:16;;;;;;;;;;;18.80;99.90;;;;;;4953514;28;19927;-81
2022/08/31 13:06:44;;;;;;;;;;;18.80;99.90;;;;;;4942324;28;19930;-81
2022/08/31 13:09:23;;;;;;;;;;;18.90;99.90;;;;;;4931823;29;20381;-82
2022/08/31 13:11:51;;;;;;;;;;;18.90;99.90;;;;;;4952026;28;19926;-81
2022/08/31 13:14:21;;;;;;;;;;;19.00;99.90;;;;;;4954581;28;19974;-81
2022/08/31 13:16:51;;;;;;;;;;;19.00;99.90;;;;;;4945993;29;19926;-81
2022/08/31 13:19:22;;;;;;;;;;;19.00;99.90;;;;;;4952184;29;19962;-81
2022/08/31 13:21:51;;;;;;;;;;;19.00;99.90;;;;;;4949812;28;19934;-81
2022/08/31 13:24:23;;;;;;;;;;;19.10;99.90;;;;;;4934359;29;20522;-81
2022/08/31 13:27:02;;;;;;;;;;;19.10;99.90;;;;;;4949423;28;19981;-81
2022/08/31 13:29:29;;;;;;;;;;;19.20;99.90;;;;;;4943107;29;19931;-82
2022/08/31 13:31:58;;;;;;;;;;;19.20;99.90;;;;;;4936930;29;19935;-81
2022/08/31 13:34:25;;;;;;;;;;;19.20;99.90;;;;;;4950623;28;19973;-81
2022/08/31 13:36:53;;;;;;;;;;;19.20;99.90;;;;;;4953754;28;19933;-81
2022/08/31 13:39:23;;;;;;;;;;;19.30;99.90;;;;;;4954681;29;19933;-82
2022/08/31 13:41:55;;;;;;;;;;;19.30;99.90;;;;;;4942932;29;19935;-81
2022/08/31 13:44:32;;;;;;;;;;;19.30;99.90;;;;;;4949467;28;19927;-81
2022/08/31 13:47:04;;;;;;;;;;;19.40;99.90;;;;;;4948292;29;21415;-82
2022/08/31 13:49:34;;;;;;;;;;;19.40;99.90;;;;;;4950371;29;20001;-81
2022/08/31 13:52:05;;;;;;;;;;;19.40;99.90;;;;;;4953525;29;19937;-81
2022/08/31 13:54:34;;;;;;;;;;;19.50;99.90;;;;;;4946580;28;20432;-81
2022/08/31 13:57:11;;;;;;;;;;;19.50;99.80;;;;;;4953012;28;20397;-81
2022/08/31 13:59:39;;;;;;;;;;;19.50;99.70;;;;;;4943369;29;20009;-81
2022/08/31 14:02:27;;;;;;;;;;;19.50;99.60;;;;;;4953432;29;19927;-81
2022/08/31 14:05:03;;;;;;;;;;;19.60;99.70;;;;;;4947955;28;19982;-81
2022/08/31 14:07:52;;;;;;;;;;;19.60;99.70;;;;;;4947774;28;19933;-80
2022/08/31 14:10:21;;;;;;;;;;;19.60;99.80;;;;;;4948448;28;20017;-80
2022/08/31 14:12:50;;;;;;;;;;;19.70;99.90;;;;;;4941602;29;19955;-80
2022/08/31 14:15:19;;;;;;;;;;;19.70;99.90;;;;;;4939493;29;20408;-79
2022/08/31 14:17:51;;;;;;;;;;;19.70;99.90;;;;;;4950368;29;19926;-80
2022/08/31 14:20:34;;;;;;;;;;;19.70;99.90;;;;;;4948222;28;19961;-80
2022/08/31 14:23:35;;;;;;;;;;;19.70;99.90;;;;;;4941170;29;20369;-80
2022/08/31 14:26:04;;;;;;;;;;;19.70;99.90;;;;;;4945041;28;20030;-79
2022/08/31 14:28:41;;;;;;;;;;;19.70;99.90;;;;;;4935222;28;19937;-80
2022/08/31 14:31:14;;;;;;;;;;;19.70;99.90;;;;;;4951920;28;20357;-80
2022/08/31 14:33:42;;;;;;;;;;;19.80;99.90;;;;;;4952760;28;19926;-80
2022/08/31 14:36:14;;;;;;;;;;;19.80;99.90;;;;;;4947996;28;19927;-79
2022/08/31 14:38:42;;;;;;;;;;;19.80;99.90;;;;;;4947324;29;19951;-80
2022/08/31 14:41:10;;;;;;;;;;;19.80;99.90;;;;;;4937570;29;20261;-80
2022/08/31 14:43:38;;;;;;;;;;;19.80;99.90;;;;;;4945806;28;19933;-80
2022/08/31 14:46:06;;;;;;;;;;;19.80;99.90;;;;;;4953557;29;19974;-80
2022/08/31 14:48:33;;;;;;;;;;;19.80;99.90;;;;;;4937601;28;19998;-81
2022/08/31 14:51:05;;;;;;;;;;;19.80;99.90;;;;;;4950906;28;19934;-81
2022/08/31 14:53:36;;;;;;;;;;;19.80;99.90;;;;;;4951071;28;19962;-80
2022/08/31 14:56:05;;;;;;;;;;;19.80;99.90;;;;;;4950488;28;20392;-81
2022/08/31 14:58:40;;;;;;;;;;;19.80;99.90;;;;;;4942554;28;19932;-81
2022/08/31 15:01:09;;;;;;;;;;;19.80;99.90;;;;;;4946228;29;19933;-80